Terminal Aerodrome Forecast
Issued by NWS Jackson, MS

Home | Current Version | Previous Version | Text Only | Print | Product List | Glossary On
Versions: 1 2 3 4 5 6 7 8 9 10 11 12 13 14 15 16
000
FTUS44 KJAN 301123
TAFGWO
TAF
KGWO 301123Z 3012/3112 18007KT P6SM VCSH FEW010 SCT020 BKN050
     FM301430 20010KT 5SM -TSRA SCT020 BKN040CB BKN060
     FM301900 22008KT P6SM VCSH BKN035 BKN060
     FM310200 VRB05KT P6SM VCTS SCT030 BKN050CB BKN120=

USA.gov is the U.S. government's official web portal to all federal, state and local government web resources and services.